Time;durP1;ratioP1;P1;durP2;ratioP2;P2;SDS_P1;SDS_P2;PMS_P1;PMS_P2;Temp;Humidity;BMP_temperature;BMP_pressure;BME280_temperature;BME280_humidity;BME280_pressure;Samples;Min_cycle;Max_cycle;Signal;HPM_P1;HPM_P2
2022/07/02 00:02:08;;;;;;;12.60;8.45;;;;;;;12.77;93.43;102164.31;4986159;28;20026;-80
2022/07/02 00:04:35;;;;;;;13.90;8.27;;;;;;;12.74;93.83;102159.19;4990771;28;20022;-81
2022/07/02 00:07:01;;;;;;;12.02;8.75;;;;;;;12.68;93.42;102162.72;4988815;28;20109;-80
2022/07/02 00:09:27;;;;;;;12.25;8.60;;;;;;;12.61;93.66;102156.72;4987018;28;20139;-81
2022/07/02 00:11:57;;;;;;;12.75;8.00;;;;;;;12.62;94.52;102155.81;4991564;28;20109;-80
2022/07/02 00:14:23;;;;;;;12.20;8.88;;;;;;;12.63;93.94;102154.06;4988199;28;20065;-80
2022/07/02 00:16:48;;;;;;;12.27;8.50;;;;;;;12.58;93.66;102154.13;4981052;28;20030;-81
2022/07/02 00:19:14;;;;;;;12.73;8.23;;;;;;;12.55;94.00;102159.41;4972634;28;20058;-81
2022/07/02 00:21:39;;;;;;;13.48;8.23;;;;;;;12.55;94.14;102164.59;4991345;28;20613;-81
2022/07/02 00:24:09;;;;;;;13.05;8.52;;;;;;;12.53;94.23;102165.47;4998354;28;20040;-81
2022/07/02 00:26:39;;;;;;;12.88;8.63;;;;;;;12.48;93.82;102167.28;4990214;28;20058;-81
2022/07/02 00:29:25;;;;;;;12.10;7.88;;;;;;;12.43;93.61;102166.44;4988041;28;20108;-80
2022/07/02 00:31:51;;;;;;;11.70;7.88;;;;;;;12.38;93.82;102161.28;4976158;28;20268;-81
2022/07/02 00:34:18;;;;;;;12.55;8.18;;;;;;;12.35;94.17;102155.28;4990927;28;20370;-80
2022/07/02 00:36:44;;;;;;;11.13;7.60;;;;;;;12.31;93.89;102163.97;4982237;28;20034;-80
2022/07/02 00:39:10;;;;;;;12.55;8.55;;;;;;;12.30;94.48;102162.22;4986820;28;20030;-80
2022/07/02 00:41:35;;;;;;;11.77;8.55;;;;;;;12.29;94.64;102166.56;4990557;28;20401;-80
2022/07/02 00:44:05;;;;;;;11.38;8.20;;;;;;;12.28;94.77;102162.28;4990098;28;20151;-80
2022/07/02 00:46:32;;;;;;;11.80;8.38;;;;;;;12.24;94.45;102156.22;4991003;28;20119;-80
2022/07/02 00:49:00;;;;;;;12.90;8.25;;;;;;;12.23;94.50;102164.03;4987992;28;20481;-81
2022/07/02 00:51:25;;;;;;;12.13;8.25;;;;;;;12.23;95.01;102162.28;4990886;28;20504;-80
2022/07/02 00:53:50;;;;;;;15.00;8.50;;;;;;;12.18;94.36;102151.09;4989340;28;20109;-80
2022/07/02 00:56:16;;;;;;;12.32;8.38;;;;;;;12.19;94.64;102151.94;4959100;28;20042;-81
2022/07/02 00:58:41;;;;;;;11.38;8.30;;;;;;;12.10;94.30;102149.44;4984776;28;20049;-80
2022/07/02 01:01:07;;;;;;;13.38;8.48;;;;;;;12.12;94.63;102152.88;4990615;28;20097;-80
2022/07/02 01:03:34;;;;;;;10.88;8.00;;;;;;;12.10;95.27;102155.50;4985444;28;20026;-81
2022/07/02 01:05:59;;;;;;;15.43;8.27;;;;;;;12.08;95.06;102151.16;4989424;28;20105;-80
2022/07/02 01:11:13;;;;;;;15.15;8.00;;;;;;;12.05;94.67;102146.00;4984885;28;20117;-80
2022/07/02 01:13:39;;;;;;;13.02;8.63;;;;;;;12.05;95.10;102143.41;4990423;28;20034;-80
2022/07/02 01:16:04;;;;;;;12.23;8.57;;;;;;;12.02;94.96;102133.03;4972805;28;20505;-80
2022/07/02 01:18:30;;;;;;;12.13;8.27;;;;;;;12.02;94.92;102141.69;4983542;28;20054;-80
2022/07/02 01:20:55;;;;;;;12.70;9.07;;;;;;;11.99;94.52;102141.75;4990223;28;20058;-81
2022/07/02 01:23:20;;;;;;;12.80;8.90;;;;;;;11.96;94.79;102138.28;4987200;28;20548;-80
2022/07/02 01:25:53;;;;;;;12.63;8.32;;;;;;;11.96;95.36;102146.94;4987291;28;20318;-80
2022/07/02 01:28:19;;;;;;;12.57;8.93;;;;;;;11.94;95.29;102146.09;4974090;28;20511;-81
2022/07/02 01:30:46;;;;;;;11.07;8.82;;;;;;;11.93;95.02;102148.72;4976742;28;20058;-80
2022/07/02 01:33:11;;;;;;;11.45;8.68;;;;;;;11.91;95.43;102147.88;4979270;28;20032;-80
2022/07/02 01:35:36;;;;;;;11.90;8.85;;;;;;;11.95;95.40;102149.56;4979873;28;20035;-80
2022/07/02 01:38:02;;;;;;;11.07;8.73;;;;;;;11.90;95.14;102143.53;4992504;28;20546;-80
2022/07/02 01:40:27;;;;;;;12.80;9.23;;;;;;;11.90;95.31;102146.13;4989173;28;20491;-80
2022/07/02 01:42:53;;;;;;;15.05;9.55;;;;;;;11.87;95.30;102150.47;4982892;28;20030;-80
2022/07/02 01:45:18;;;;;;;13.52;9.63;;;;;;;11.86;95.66;102148.78;4990185;28;20022;-81
2022/07/02 01:47:43;;;;;;;15.15;9.65;;;;;;;11.83;95.75;102146.19;4975250;28;20100;-80
2022/07/02 01:50:09;;;;;;;13.80;9.52;;;;;;;11.83;95.77;102147.94;4985033;28;20045;-80
2022/07/02 01:52:34;;;;;;;14.77;9.40;;;;;;;11.81;95.90;102150.53;4972891;28;20284;-80
2022/07/02 01:55:00;;;;;;;13.60;9.48;;;;;;;11.80;95.88;102151.41;4994520;28;20026;-80
2022/07/02 01:57:29;;;;;;;14.82;9.50;;;;;;;11.80;96.38;102147.97;4999415;28;20121;-80
2022/07/02 01:59:55;;;;;;;12.10;9.70;;;;;;;11.78;96.14;102139.31;4992323;28;20093;-81
2022/07/02 02:02:20;;;;;;;11.68;8.82;;;;;;;11.76;96.23;102139.31;4988805;28;20381;-80
2022/07/02 02:04:45;;;;;;;15.00;8.55;;;;;;;11.79;96.42;102138.44;5002531;28;20018;-80
2022/07/02 02:07:11;;;;;;;11.98;9.13;;;;;;;11.74;95.34;102141.06;4976153;28;20116;-80
2022/07/02 02:09:36;;;;;;;14.68;9.50;;;;;;;11.76;96.02;102141.91;4971275;28;20113;-80
2022/07/02 02:12:02;;;;;;;14.98;9.05;;;;;;;11.73;95.63;102135.88;4998298;28;20018;-80
2022/07/02 02:14:27;;;;;;;11.48;8.73;;;;;;;11.70;95.93;102139.34;4994316;28;20031;-80
2022/07/02 02:16:53;;;;;;;13.40;8.85;;;;;;;11.70;96.13;102135.88;4979818;28;20033;-80
2022/07/02 02:19:18;;;;;;;14.45;9.38;;;;;;;11.68;95.84;102148.00;4991635;28;20057;-81
2022/07/02 02:21:44;;;;;;;12.45;8.52;;;;;;;11.66;96.08;102142.84;4993638;28;20113;-80
2022/07/02 02:24:09;;;;;;;12.75;8.90;;;;;;;11.63;95.94;102136.78;4993618;28;20043;-80
2022/07/02 02:26:34;;;;;;;12.90;8.77;;;;;;;11.60;96.04;102147.22;4991679;28;20493;-80
2022/07/02 02:28:59;;;;;;;12.50;8.90;;;;;;;11.58;96.27;102144.63;4991880;28;20025;-80
2022/07/02 02:31:25;;;;;;;14.93;8.93;;;;;;;11.56;96.44;102142.91;4991272;28;20058;-80
2022/07/02 02:33:50;;;;;;;13.02;8.95;;;;;;;11.56;96.81;102150.69;4991342;28;20034;-80
2022/07/02 02:36:16;;;;;;;13.85;9.02;;;;;;;11.58;96.84;102151.56;4979724;28;20038;-80
2022/07/02 02:38:41;;;;;;;14.70;8.98;;;;;;;11.57;97.02;102148.09;4992451;28;20030;-81
2022/07/02 02:41:07;;;;;;;15.75;9.30;;;;;;;11.58;96.97;102142.03;4990376;28;20022;-80
2022/07/02 02:43:34;;;;;;;16.88;9.10;;;;;;;11.58;96.85;102143.75;4993421;28;20109;-80
2022/07/02 02:46:01;;;;;;;14.32;9.07;;;;;;;11.60;97.25;102135.06;4989746;28;20022;-80
2022/07/02 02:48:27;;;;;;;12.57;8.95;;;;;;;11.62;97.43;102143.72;4988048;28;20121;-80
2022/07/02 02:50:52;;;;;;;13.13;8.82;;;;;;;11.64;97.66;102141.97;4991534;28;20401;-80
2022/07/02 02:53:18;;;;;;;14.85;9.35;;;;;;;11.69;97.71;102141.94;4984937;28;20500;-81
2022/07/02 02:55:43;;;;;;;13.50;9.15;;;;;;;11.72;98.08;102147.13;4979794;28;20129;-80
2022/07/02 02:58:08;;;;;;;14.32;9.23;;;;;;;11.73;98.01;102152.31;4993038;28;20061;-80
2022/07/02 03:00:34;;;;;;;13.45;9.60;;;;;;;11.81;98.56;102160.91;4974239;28;20069;-80
2022/07/02 03:02:59;;;;;;;16.65;9.73;;;;;;;11.86;99.00;102156.56;4986962;28;20493;-80
2022/07/02 03:05:25;;;;;;;13.90;9.57;;;;;;;11.94;98.91;102153.88;4973132;28;20049;-81
2022/07/02 03:07:50;;;;;;;16.52;9.85;;;;;;;11.99;99.31;102162.53;4990098;28;20034;-81
2022/07/02 03:10:16;;;;;;;14.65;9.48;;;;;;;12.07;98.94;102160.72;4987419;28;20022;-81
2022/07/02 03:12:42;;;;;;;13.30;9.23;;;;;;;12.15;99.10;102158.91;4992379;28;20521;-80
2022/07/02 03:15:08;;;;;;;16.42;9.90;;;;;;;12.22;99.22;102162.31;4975172;28;20045;-81
2022/07/02 03:17:33;;;;;;;15.73;10.20;;;;;;;12.26;99.13;102156.22;4989875;28;20030;-81
2022/07/02 03:19:59;;;;;;;13.50;9.55;;;;;;;12.32;98.89;102160.50;4975149;28;20515;-81
2022/07/02 03:22:24;;;;;;;15.25;9.18;;;;;;;12.31;97.54;102166.56;4991159;28;20189;-81
2022/07/02 03:24:49;;;;;;;14.32;9.10;;;;;;;12.29;97.77;102156.16;4992803;28;20065;-81
2022/07/02 03:27:15;;;;;;;16.40;8.90;;;;;;;12.24;97.28;102164.03;4992733;28;20030;-81
2022/07/02 03:29:40;;;;;;;15.43;9.25;;;;;;;12.21;96.74;102174.44;4992641;28;20026;-81
2022/07/02 03:32:06;;;;;;;15.43;8.68;;;;;;;12.17;96.97;102174.50;4969441;28;20282;-81
2022/07/02 03:34:31;;;;;;;15.70;9.02;;;;;;;12.14;96.82;102179.72;4987798;28;20044;-81
2022/07/02 03:36:56;;;;;;;14.27;8.52;;;;;;;12.12;96.67;102182.34;4992158;28;20101;-81
2022/07/02 03:39:22;;;;;;;11.93;8.23;;;;;;;12.08;96.48;102179.75;4992192;28;20118;-81
2022/07/02 03:41:47;;;;;;;12.65;8.07;;;;;;;12.04;96.53;102184.13;4990228;28;20064;-81
2022/07/02 03:44:13;;;;;;;11.68;8.50;;;;;;;12.04;97.45;102178.06;4991837;28;20030;-81
2022/07/02 03:46:38;;;;;;;12.40;8.85;;;;;;;12.04;97.74;102175.47;4991361;28;20019;-81
2022/07/02 03:49:03;;;;;;;16.17;8.40;;;;;;;12.09;97.62;102177.16;4995089;28;20085;-81
2022/07/02 03:51:29;;;;;;;14.90;8.88;;;;;;;12.13;97.80;102180.59;4990456;28;20100;-81
2022/07/02 03:53:54;;;;;;;12.38;8.73;;;;;;;12.16;97.83;102176.22;4973610;28;20030;-81
2022/07/02 03:56:20;;;;;;;14.63;8.80;;;;;;;12.18;98.08;102176.22;4990451;28;20088;-81
2022/07/02 03:58:45;;;;;;;14.93;9.38;;;;;;;12.22;97.53;102180.50;4972887;28;20042;-81
2022/07/02 04:01:10;;;;;;;14.25;9.27;;;;;;;12.24;96.94;102181.34;4989925;28;20066;-81
2022/07/02 04:03:36;;;;;;;12.05;8.80;;;;;;;12.23;97.06;102187.44;5003576;28;20105;-81
2022/07/02 04:06:02;;;;;;;13.23;8.82;;;;;;;12.21;96.50;102189.19;4991951;28;20023;-81
2022/07/02 04:08:28;;;;;;;13.32;9.35;;;;;;;12.21;96.68;102182.22;4990648;28;20027;-81
2022/07/02 04:10:53;;;;;;;14.77;8.77;;;;;;;12.21;96.57;102187.44;4990170;28;20030;-81
2022/07/02 04:13:19;;;;;;;12.90;8.77;;;;;;;12.23;96.86;102196.09;4990577;28;20038;-81
2022/07/02 04:15:44;;;;;;;13.32;8.52;;;;;;;12.20;96.93;102184.88;4990612;28;20095;-81
2022/07/02 04:18:10;;;;;;;12.10;8.85;;;;;;;12.24;97.78;102186.56;4990580;28;20133;-81
2022/07/02 04:20:35;;;;;;;15.60;9.10;;;;;;;12.22;97.54;102191.75;4978874;28;20125;-81
2022/07/02 04:23:00;;;;;;;12.32;8.63;;;;;;;12.26;97.91;102184.81;4971094;28;20050;-81
2022/07/02 04:25:25;;;;;;;11.68;8.90;;;;;;;12.26;97.29;102184.81;4970046;28;20030;-81
2022/07/02 04:27:51;;;;;;;12.65;8.88;;;;;;;12.25;97.54;102185.69;4950552;28;20034;-81
2022/07/02 04:30:16;;;;;;;13.18;9.48;;;;;;;12.22;97.32;102181.38;4972083;28;20093;-81
2022/07/02 04:32:41;;;;;;;13.90;9.18;;;;;;;12.28;97.36;102190.88;4976450;28;20026;-81
2022/07/02 04:35:07;;;;;;;12.52;9.10;;;;;;;12.30;97.29;102201.22;4975159;28;20059;-81
2022/07/02 04:37:33;;;;;;;15.98;9.13;;;;;;;12.30;97.11;102189.09;4971917;28;20065;-81
2022/07/02 04:39:58;;;;;;;17.30;9.90;;;;;;;12.31;97.37;102193.44;4970395;28;20027;-81
2022/07/02 04:42:24;;;;;;;16.10;9.68;;;;;;;12.34;97.18;102190.81;4970744;28;20039;-81
2022/07/02 04:44:49;;;;;;;14.48;9.52;;;;;;;12.33;96.67;102188.22;4971737;28;20022;-81
2022/07/02 04:47:14;;;;;;;16.17;10.68;;;;;;;12.33;96.97;102189.09;4969717;28;20031;-81
2022/07/02 04:49:40;;;;;;;15.43;10.68;;;;;;;12.38;97.31;102191.63;4969249;28;20030;-81
2022/07/02 04:52:06;;;;;;;14.88;10.70;;;;;;;12.42;97.60;102195.94;4954561;28;20098;-81
2022/07/02 04:54:31;;;;;;;14.68;10.27;;;;;;;12.47;97.38;102191.56;4971057;28;20038;-81
2022/07/02 04:56:56;;;;;;;16.02;10.98;;;;;;;12.53;97.93;102189.75;4976759;28;20117;-81
2022/07/02 04:59:22;;;;;;;17.77;11.67;;;;;;;12.59;97.72;102192.28;4973683;28;20034;-81
2022/07/02 05:01:47;;;;;;;16.33;11.55;;;;;;;12.64;97.27;102187.03;4954986;28;20289;-82
2022/07/02 05:04:13;;;;;;;16.58;11.35;;;;;;;12.71;97.31;102195.63;4982204;28;20120;-81
2022/07/02 05:06:38;;;;;;;16.15;11.70;;;;;;;12.79;97.84;102191.19;4970253;28;20046;-82
2022/07/02 05:09:04;;;;;;;15.98;11.70;;;;;;;12.84;97.53;102194.59;4969361;28;20030;-82
2022/07/02 05:11:29;;;;;;;14.85;11.07;;;;;;;12.90;95.87;102195.41;4968946;28;20049;-82
2022/07/02 05:13:55;;;;;;;16.10;11.63;;;;;;;12.95;96.62;102195.38;4976148;28;20516;-82
2022/07/02 05:16:20;;;;;;;17.55;11.20;;;;;;;12.98;95.21;102190.09;4972344;28;20470;-82
2022/07/02 05:18:45;;;;;;;18.02;11.82;;;;;;;13.05;96.63;102194.34;4977768;28;20153;-82
2022/07/02 05:21:11;;;;;;;17.42;11.45;;;;;;;13.09;96.45;102187.38;4966592;28;20027;-82
2022/07/02 05:23:42;;;;;;;17.23;11.15;;;;;;;13.10;94.20;102191.72;4966092;28;20034;-82
2022/07/02 05:26:08;;;;;;;15.65;10.90;;;;;;;13.13;94.57;102195.16;4969904;28;20026;-82
2022/07/02 05:28:33;;;;;;;16.13;10.95;;;;;;;13.18;95.05;102195.09;4977774;28;20408;-83
2022/07/02 05:30:58;;;;;;;14.05;10.70;;;;;;;13.22;94.55;102192.44;4969562;28;20392;-82
2022/07/02 05:33:24;;;;;;;15.35;11.05;;;;;;;13.31;95.88;102192.31;4989281;28;20080;-82
2022/07/02 05:35:49;;;;;;;19.35;11.68;;;;;;;13.37;96.29;102197.44;4963906;28;20086;-83
2022/07/02 05:38:15;;;;;;;17.98;11.13;;;;;;;13.41;95.37;102196.53;4973802;28;20047;-82
2022/07/02 05:40:40;;;;;;;16.75;10.75;;;;;;;13.47;96.07;102199.91;4970237;28;20121;-82
2022/07/02 05:43:05;;;;;;;14.27;9.73;;;;;;;13.45;93.81;102208.63;4969960;28;20035;-82
2022/07/02 05:45:31;;;;;;;13.50;10.40;;;;;;;13.52;94.15;102206.78;4970891;28;20042;-82
2022/07/02 05:47:56;;;;;;;15.30;10.32;;;;;;;13.56;93.69;102208.47;4972380;28;20311;-82
2022/07/02 05:50:21;;;;;;;14.40;9.65;;;;;;;13.56;93.95;102200.66;4957851;28;20738;-91
2022/07/02 05:52:47;;;;;;;12.88;9.90;;;;;;;13.61;95.80;102204.06;4960185;28;20037;-91
2022/07/02 05:55:14;;;;;;;14.70;9.57;;;;;;;13.62;94.40;102207.53;4962430;28;20049;-92
2022/07/02 05:57:39;;;;;;;13.48;9.82;;;;;;;13.63;95.79;102211.84;4958664;28;20030;-92
2022/07/02 06:00:06;;;;;;;13.65;9.38;;;;;;;13.64;94.42;102213.59;4961769;28;20039;-91
2022/07/02 06:02:31;;;;;;;13.75;9.07;;;;;;;13.70;93.90;102214.34;4963010;28;21309;-92
2022/07/02 06:04:56;;;;;;;15.05;10.30;;;;;;;13.74;94.96;102209.94;4945734;28;20038;-92
2022/07/02 06:07:40;;;;;;;15.80;9.43;;;;;;;13.79;92.18;102211.59;4956258;28;20113;-91
2022/07/02 06:10:07;;;;;;;15.77;9.88;;;;;;;13.88;93.70;102212.34;4966092;28;20494;-92
2022/07/02 06:12:32;;;;;;;14.27;10.13;;;;;;;13.90;93.65;102206.22;4962869;28;20031;-92
2022/07/02 06:14:57;;;;;;;12.48;9.60;;;;;;;13.99;92.40;102206.06;4973830;28;20029;-91
2022/07/02 06:17:23;;;;;;;15.13;9.00;;;;;;;14.04;92.09;102206.88;4965884;28;20087;-92
2022/07/02 06:19:48;;;;;;;12.55;9.18;;;;;;;14.13;90.75;102201.50;4993695;28;20056;-83
2022/07/02 06:22:14;;;;;;;12.05;7.10;;;;;;;14.20;89.74;102203.09;4987278;28;20117;-83
2022/07/02 06:24:39;;;;;;;9.32;6.22;;;;;;;14.29;88.03;102206.47;4990304;28;20092;-83
2022/07/02 06:27:05;;;;;;;11.73;7.03;;;;;;;14.37;87.79;102205.44;4989954;28;20023;-83
2022/07/02 06:29:31;;;;;;;12.55;6.43;;;;;;;14.49;85.05;102217.44;4990132;28;20673;-83
2022/07/02 06:31:56;;;;;;;9.85;6.60;;;;;;;14.57;88.62;102215.56;4988569;28;20558;-83
2022/07/02 06:34:21;;;;;;;11.63;6.28;;;;;;;14.66;89.93;102218.00;4986160;28;20382;-83
2022/07/02 06:36:47;;;;;;;11.25;7.07;;;;;;;14.74;93.17;102228.31;4986279;28;20444;-83
2022/07/02 06:39:12;;;;;;;9.98;6.15;;;;;;;14.78;89.34;102222.13;4991274;28;20037;-83
2022/07/02 06:44:21;;;;;;;8.02;4.57;;;;;;;14.98;83.49;102225.22;4992525;28;20320;-83
2022/07/02 06:46:47;;;;;;;8.23;4.78;;;;;;;15.10;86.41;102226.72;4993450;28;20049;-83
2022/07/02 06:49:13;;;;;;;8.13;4.35;;;;;;;15.22;84.62;102221.22;4993498;28;20404;-83
2022/07/02 06:51:38;;;;;;;7.22;4.57;;;;;;;15.40;85.93;102226.09;4991864;28;20132;-83
2022/07/02 06:54:03;;;;;;;7.40;4.60;;;;;;;15.64;87.13;102216.84;4992454;28;20030;-83
2022/07/02 06:56:35;;;;;;;7.18;3.97;;;;;;;15.93;81.68;102219.66;4975370;28;20027;-83
2022/07/02 06:59:00;;;;;;;6.60;3.40;;;;;;;16.23;86.14;102211.97;4991761;28;20033;-83
2022/07/02 07:01:26;;;;;;;7.28;3.72;;;;;;;16.49;77.86;102213.00;4974912;28;20026;-83
2022/07/02 07:03:51;;;;;;;6.13;3.30;;;;;;;16.72;78.59;102215.03;4975834;28;20030;-84
2022/07/02 07:06:17;;;;;;;3.57;2.70;;;;;;;16.89;75.90;102210.19;4992208;28;20018;-83
2022/07/02 07:08:42;;;;;;;6.03;2.65;;;;;;;17.08;78.61;102217.53;4992353;28;20392;-84
2022/07/02 07:11:08;;;;;;;5.47;2.80;;;;;;;17.19;76.63;102212.84;4992424;28;20453;-84
2022/07/02 07:13:33;;;;;;;6.57;2.47;;;;;;;17.23;78.83;102212.72;4974349;28;20545;-84
2022/07/02 07:15:59;;;;;;;6.03;2.58;;;;;;;17.23;74.41;102214.47;4975004;28;20308;-84
2022/07/02 07:18:24;;;;;;;4.88;2.20;;;;;;;17.24;76.42;102216.19;4962690;28;20051;-84
2022/07/02 07:20:52;;;;;;;6.40;2.35;;;;;;;17.27;75.49;102216.09;4974013;28;20030;-84
2022/07/02 07:23:17;;;;;;;5.50;2.25;;;;;;;17.36;75.90;102218.44;4973180;28;20041;-84
2022/07/02 07:25:43;;;;;;;3.63;2.20;;;;;;;17.43;72.77;102216.50;4973508;28;20011;-84
2022/07/02 07:28:08;;;;;;;4.25;2.17;;;;;;;17.48;74.95;102220.69;4973512;28;20054;-84
2022/07/02 07:30:33;;;;;;;4.27;2.30;;;;;;;17.55;73.35;102222.22;4975585;28;20037;-84
2022/07/02 07:32:59;;;;;;;4.75;2.13;;;;;;;17.62;76.67;102208.06;4981460;28;20304;-84
2022/07/02 07:35:24;;;;;;;2.83;1.90;;;;;;;17.72;71.85;102209.50;4972031;28;20035;-84
2022/07/02 07:37:59;;;;;;;5.20;2.20;;;;;;;17.83;72.95;102210.91;4977578;28;20113;-84
2022/07/02 07:40:26;;;;;;;5.32;2.10;;;;;;;17.99;71.39;102220.00;4972374;28;20349;-84
2022/07/02 07:42:51;;;;;;;3.30;1.92;;;;;;;18.12;64.03;102218.69;4973048;28;20023;-84
2022/07/02 07:45:17;;;;;;;3.28;1.83;;;;;;;18.37;70.51;102221.34;4971498;28;20027;-83
2022/07/02 07:47:42;;;;;;;4.65;2.10;;;;;;;18.64;70.72;102223.03;4950502;28;20034;-84
2022/07/02 07:50:08;;;;;;;5.63;1.90;;;;;;;19.33;67.40;102227.50;4960364;28;20026;-92
2022/07/02 07:52:33;;;;;;;4.65;1.70;;;;;;;20.48;57.91;102216.72;4973135;28;20263;-92
2022/07/02 07:54:58;;;;;;;3.75;1.75;;;;;;;21.64;57.93;102216.72;4973399;28;20041;-93
2022/07/02 07:57:24;;;;;;;3.17;1.80;;;;;;;22.73;52.10;102213.88;4975359;28;20032;-93
2022/07/02 07:59:49;;;;;;;3.03;1.77;;;;;;;23.69;52.16;102213.06;4982714;28;20567;-92
2022/07/02 08:02:15;;;;;;;5.00;1.77;;;;;;;24.57;53.05;102207.84;4975375;28;20336;-93
2022/07/02 08:04:40;;;;;;;4.85;2.35;;;;;;;25.29;47.24;102202.47;4983161;28;20019;-93
2022/07/02 08:07:06;;;;;;;3.83;2.20;;;;;;;25.78;44.29;102202.84;4964483;28;20033;-93
2022/07/02 08:09:31;;;;;;;4.03;1.92;;;;;;;26.12;41.91;102196.13;4993592;28;20014;-94
2022/07/02 08:11:56;;;;;;;7.43;2.10;;;;;;;26.60;42.95;102205.25;4980381;28;20042;-94
2022/07/02 08:14:22;;;;;;;4.80;1.97;;;;;;;26.59;47.77;102203.53;4960350;28;20026;-95
2022/07/02 08:16:47;;;;;;;3.17;1.93;;;;;;;26.39;41.29;102190.75;4976389;28;20044;-95
2022/07/02 08:19:12;;;;;;;2.80;1.90;;;;;;;26.16;45.96;102210.03;4986971;28;20742;-84
2022/07/02 08:21:38;;;;;;;4.18;1.90;;;;;;;25.85;45.82;102206.81;4974786;28;20300;-84
2022/07/02 08:24:03;;;;;;;3.90;1.70;;;;;;;25.72;45.37;102192.63;4975082;28;20030;-84
2022/07/02 08:26:29;;;;;;;5.13;1.50;;;;;;;25.45;47.76;102195.22;4992525;28;20065;-84
2022/07/02 08:28:54;;;;;;;3.43;1.70;;;;;;;25.21;43.17;102195.94;4996304;28;20033;-83
2022/07/02 08:31:19;;;;;;;2.83;1.60;;;;;;;25.00;43.10;102199.00;4992483;28;20379;-83
2022/07/02 08:33:44;;;;;;;3.50;1.70;;;;;;;24.91;45.67;102198.72;4992280;28;20278;-83
2022/07/02 08:36:10;;;;;;;3.73;1.70;;;;;;;24.79;45.11;102195.00;4991691;28;20297;-83
2022/07/02 08:38:36;;;;;;;3.05;1.58;;;;;;;24.67;47.51;102190.47;4992285;28;20293;-83
2022/07/02 08:41:04;;;;;;;3.55;1.80;;;;;;;24.68;48.44;102189.50;4992039;28;20033;-83
2022/07/02 08:43:31;;;;;;;4.00;1.88;;;;;;;24.64;45.17;102188.84;4996548;28;20034;-83
2022/07/02 08:46:01;;;;;;;4.15;1.85;;;;;;;24.61;46.28;102182.88;4996152;28;20038;-83
2022/07/02 08:48:28;;;;;;;4.60;1.63;;;;;;;24.55;43.49;102184.13;4974255;28;20092;-84
2022/07/02 08:50:56;;;;;;;4.78;1.95;;;;;;;24.67;49.19;102186.00;4991188;28;20042;-84
2022/07/02 08:53:21;;;;;;;4.35;1.80;;;;;;;24.76;49.60;102180.16;4991515;28;20022;-84
2022/07/02 08:55:50;;;;;;;3.03;1.80;;;;;;;24.91;46.04;102182.78;4976105;28;20038;-83
2022/07/02 08:58:16;;;;;;;5.75;1.73;;;;;;;24.91;49.09;102173.03;4997437;28;20054;-83
2022/07/02 09:00:42;;;;;;;4.88;1.70;;;;;;;24.95;48.88;102176.38;4991408;28;20065;-84
2022/07/02 09:03:09;;;;;;;3.83;1.73;;;;;;;25.02;45.04;102173.25;4991512;28;20034;-83
2022/07/02 09:05:37;;;;;;;2.53;1.70;;;;;;;25.06;48.03;102172.09;4991543;28;20403;-83
2022/07/02 09:08:03;;;;;;;5.18;1.95;;;;;;;25.08;44.88;102178.16;4973695;28;20429;-83
2022/07/02 09:10:29;;;;;;;4.53;2.05;;;;;;;25.25;47.45;102171.75;4993196;28;20061;-83
2022/07/02 09:12:55;;;;;;;4.57;1.90;;;;;;;25.22;47.80;102169.31;4989761;28;20617;-84
2022/07/02 09:15:21;;;;;;;5.03;1.90;;;;;;;25.39;48.61;102170.88;4992903;28;20278;-83
2022/07/02 09:17:46;;;;;;;6.78;2.10;;;;;;;25.44;47.74;102163.47;4992589;28;20401;-84
2022/07/02 09:20:12;;;;;;;3.50;1.73;;;;;;;25.51;46.34;102170.09;4997072;28;20481;-83
2022/07/02 09:22:46;;;;;;;4.20;1.80;;;;;;;25.53;46.64;102152.22;4994692;28;20500;-83
2022/07/02 09:25:17;;;;;;;4.90;1.80;;;;;;;25.43;46.78;102156.44;4990206;28;20433;-83
2022/07/02 09:27:44;;;;;;;5.15;1.92;;;;;;;25.43;48.20;102153.81;4984258;28;20030;-83
2022/07/02 09:30:14;;;;;;;3.10;1.83;;;;;;;25.64;46.08;102152.44;4988511;28;20030;-84
2022/07/02 09:32:42;;;;;;;5.78;1.80;;;;;;;25.74;42.08;102150.84;4994743;28;20030;-84
2022/07/02 09:35:19;;;;;;;4.45;2.00;;;;;;;25.92;44.09;102154.09;4990749;28;20413;-84
2022/07/02 09:37:44;;;;;;;3.33;1.63;;;;;;;25.96;42.20;102148.47;4986876;28;20073;-84
2022/07/02 09:40:10;;;;;;;7.32;1.80;;;;;;;25.98;42.97;102150.16;4990440;28;20065;-83
2022/07/02 09:42:36;;;;;;;3.92;1.90;;;;;;;26.00;41.03;102145.59;4971518;28;20034;-84
2022/07/02 09:45:05;;;;;;;6.03;2.20;;;;;;;25.97;40.97;102141.34;4989285;28;20201;-84
2022/07/02 09:47:44;;;;;;;6.28;1.95;;;;;;;26.06;43.54;102139.88;4983132;28;20030;-83
2022/07/02 09:50:12;;;;;;;4.18;1.92;;;;;;;25.93;46.08;102131.88;4978114;28;20031;-91
2022/07/02 09:52:50;;;;;;;5.20;1.88;;;;;;;25.94;45.60;102123.78;5002960;28;20032;-91
2022/07/02 09:55:26;;;;;;;5.63;2.00;;;;;;;25.93;44.90;102127.41;4988780;28;20104;-91
2022/07/02 09:57:53;;;;;;;4.55;2.08;;;;;;;25.82;43.05;102129.94;4987194;28;20440;-90
2022/07/02 10:00:20;;;;;;;5.60;1.90;;;;;;;25.76;43.74;102126.84;4998755;28;20026;-92
2022/07/02 10:02:50;;;;;;;4.00;1.90;;;;;;;25.79;44.27;102127.50;4998264;28;20129;-91
2022/07/02 10:05:20;;;;;;;4.75;1.95;;;;;;;25.71;42.32;102121.84;4990915;28;20046;-91
2022/07/02 10:07:46;;;;;;;5.90;1.88;;;;;;;25.73;45.63;102119.91;4992552;28;20037;-90
2022/07/02 10:10:11;;;;;;;7.47;1.92;;;;;;;25.93;45.42;102121.25;4993210;28;20026;-91
2022/07/02 10:12:37;;;;;;;2.78;1.73;;;;;;;25.86;45.72;102115.47;4999868;28;20156;-91
2022/07/02 10:15:04;;;;;;;4.68;2.10;;;;;;;26.00;44.98;102117.19;5006298;28;20322;-90
2022/07/02 10:17:33;;;;;;;5.70;2.10;;;;;;;26.21;44.24;102107.75;4993932;28;20117;-92
2022/07/02 10:19:59;;;;;;;4.20;1.98;;;;;;;26.26;45.45;102105.69;4980495;28;20059;-92
2022/07/02 10:22:25;;;;;;;4.70;1.90;;;;;;;26.28;43.62;102102.88;4982604;28;20061;-91
2022/07/02 10:24:51;;;;;;;5.32;1.70;;;;;;;25.76;42.46;102110.91;4972838;28;20097;-91
2022/07/02 10:27:18;;;;;;;2.95;1.85;;;;;;;25.15;45.14;102101.66;4965418;28;20023;-92
2022/07/02 10:29:43;;;;;;;3.75;1.80;;;;;;;24.90;45.56;102102.38;4988050;28;20027;-92
2022/07/02 10:32:49;;;;;;;2.88;1.60;;;;;;;24.62;45.29;102100.59;4959651;28;20115;-93
2022/07/02 10:35:16;;;;;;;6.20;1.85;;;;;;;24.60;44.66;102097.16;4976959;28;20050;-91
2022/07/02 10:37:43;;;;;;;5.10;1.80;;;;;;;24.53;46.06;102098.50;4982828;28;20038;-91
2022/07/02 10:40:09;;;;;;;5.35;1.88;;;;;;;24.66;44.50;102090.63;4954994;28;20410;-91
2022/07/02 10:42:40;;;;;;;3.25;1.83;;;;;;;24.85;45.47;102088.50;4965818;28;20034;-91
2022/07/02 10:45:20;;;;;;;2.67;1.80;;;;;;;24.67;45.78;102092.34;4972651;28;20030;-91
2022/07/02 10:48:03;;;;;;;4.93;1.65;;;;;;;24.24;48.50;102089.69;4978486;28;20208;-90
2022/07/02 10:50:35;;;;;;;3.67;1.58;;;;;;;23.90;48.24;102090.84;4973409;28;20967;-89
2022/07/02 10:53:19;;;;;;;2.65;1.50;;;;;;;23.87;46.37;102098.13;4974865;28;20034;-89
2022/07/02 10:56:02;;;;;;;3.22;1.50;;;;;;;23.78;43.50;102088.94;4973578;28;20030;-90
2022/07/02 10:58:34;;;;;;;5.25;1.48;;;;;;;23.71;44.92;102086.72;4973248;28;20042;-91
2022/07/02 11:01:21;;;;;;;5.28;1.42;;;;;;;23.71;45.75;102084.94;4974731;28;20029;-92
2022/07/02 11:03:52;;;;;;;2.70;1.50;;;;;;;23.56;46.79;102085.81;4957203;28;20026;-90
2022/07/02 11:06:27;;;;;;;3.72;1.60;;;;;;;23.72;47.57;102088.44;4972630;28;20074;-90
2022/07/02 11:09:00;;;;;;;2.05;1.40;;;;;;;24.00;47.89;102072.59;4965966;28;20113;-90
2022/07/02 11:11:35;;;;;;;2.63;1.77;;;;;;;24.16;48.46;102083.09;4960912;28;20367;-91
2022/07/02 11:14:05;;;;;;;2.88;1.60;;;;;;;24.22;42.32;102074.84;4976026;28;20045;-90
2022/07/02 11:16:43;;;;;;;2.63;1.30;;;;;;;24.19;46.33;102072.34;4978382;28;20069;-90
2022/07/02 11:19:19;;;;;;;2.90;1.50;;;;;;;24.33;46.34;102078.53;4979202;28;20065;-90
2022/07/02 11:21:46;;;;;;;3.55;1.48;;;;;;;24.51;44.19;102083.63;4956736;28;20409;-91
2022/07/02 11:24:16;;;;;;;2.83;1.42;;;;;;;24.61;45.70;102080.31;4961304;28;20481;-90